Time;durP1;ratioP1;P1;durP2;ratioP2;P2;SDS_P1;SDS_P2;PMS_P1;PMS_P2;Temp;Humidity;BMP_temperature;BMP_pressure;BME280_temperature;BME280_humidity;BME280_pressure;Samples;Min_cycle;Max_cycle;Signal;HPM_P1;HPM_P2
2022/08/16 00:01:17;;;;;;;25.40;23.00;;;21.30;99.90;;;;;;5089784;28;20059;-74
2022/08/16 00:03:44;;;;;;;29.95;21.95;;;21.20;99.90;;;;;;5088082;28;20090;-73
2022/08/16 00:06:10;;;;;;;26.07;22.90;;;21.10;99.90;;;;;;5108286;28;20438;-73
2022/08/16 00:08:37;;;;;;;24.25;21.23;;;21.10;99.90;;;;;;5087922;28;20293;-73
2022/08/16 00:11:05;;;;;;;24.10;21.83;;;21.10;99.90;;;;;;5089846;28;20050;-73
2022/08/16 00:13:32;;;;;;;24.35;22.05;;;21.00;99.90;;;;;;5089797;28;20443;-73
2022/08/16 00:15:58;;;;;;;25.77;22.85;;;21.00;99.90;;;;;;5087061;28;20051;-72
2022/08/16 00:18:24;;;;;;;24.27;21.83;;;21.00;99.90;;;;;;5108259;28;20051;-72
2022/08/16 00:20:50;;;;;;;27.13;24.60;;;21.00;99.90;;;;;;5085763;28;20047;-72
2022/08/16 00:23:17;;;;;;;26.23;23.15;;;21.00;99.90;;;;;;5108264;28;20389;-72
2022/08/16 00:25:43;;;;;;;26.42;23.90;;;21.00;99.90;;;;;;5104073;28;20084;-73
2022/08/16 00:28:09;;;;;;;24.58;21.70;;;21.00;99.90;;;;;;5088115;28;20051;-72
2022/08/16 00:30:35;;;;;;;27.25;24.50;;;21.10;99.90;;;;;;5087628;28;20050;-73
2022/08/16 00:33:01;;;;;;;25.67;21.63;;;21.10;99.90;;;;;;5090074;28;20031;-73
2022/08/16 00:35:31;;;;;;;25.05;22.42;;;21.10;99.90;;;;;;5089673;28;20103;-73
2022/08/16 00:37:58;;;;;;;28.08;21.83;;;21.10;99.90;;;;;;5090349;28;20154;-73
2022/08/16 00:40:47;;;;;;;22.90;20.45;;;21.20;99.90;;;;;;5081050;28;20153;-72
2022/08/16 00:43:16;;;;;;;24.27;21.95;;;21.20;99.90;;;;;;5088301;28;20070;-72
2022/08/16 00:46:14;;;;;;;23.63;21.30;;;21.20;99.90;;;;;;5089860;28;20056;-72
2022/08/16 00:48:43;;;;;;;26.55;23.70;;;21.20;99.90;;;;;;5067548;28;20063;-73
2022/08/16 00:51:10;;;;;;;29.73;25.90;;;21.20;99.90;;;;;;5089688;28;20055;-73
2022/08/16 00:53:36;;;;;;;29.00;25.98;;;21.10;99.90;;;;;;5107420;28;20047;-72
2022/08/16 00:56:10;;;;;;;27.48;24.10;;;21.00;99.90;;;;;;5087031;28;20047;-73
2022/08/16 00:58:39;;;;;;;27.38;24.73;;;21.00;99.90;;;;;;5088743;28;20516;-72
2022/08/16 01:01:07;;;;;;;27.38;24.40;;;21.00;99.90;;;;;;5088558;28;20170;-73
2022/08/16 01:03:34;;;;;;;25.45;22.95;;;21.00;99.90;;;;;;5093494;28;20044;-72
2022/08/16 01:06:00;;;;;;;26.70;24.00;;;21.00;99.90;;;;;;5088589;28;20108;-73
2022/08/16 01:08:27;;;;;;;26.42;23.35;;;21.00;99.90;;;;;;5092783;28;20552;-72
2022/08/16 01:10:54;;;;;;;25.42;22.83;;;21.10;99.90;;;;;;5090331;28;20500;-73
2022/08/16 01:13:25;;;;;;;22.83;20.60;;;21.10;99.90;;;;;;5109230;28;20077;-73
2022/08/16 01:16:05;;;;;;;24.98;22.63;;;21.10;99.90;;;;;;5105970;28;20378;-73
2022/08/16 01:18:38;;;;;;;25.33;22.75;;;21.10;99.90;;;;;;5092505;28;20492;-72
2022/08/16 01:21:19;;;;;;;30.80;27.70;;;21.10;99.90;;;;;;5088440;28;20056;-72
2022/08/16 01:23:58;;;;;;;25.27;22.65;;;21.00;99.90;;;;;;5080485;28;20482;-72
2022/08/16 01:26:29;;;;;;;29.45;26.30;;;20.90;99.90;;;;;;5078535;28;20675;-73
2022/08/16 01:28:56;;;;;;;29.92;26.90;;;20.90;99.90;;;;;;5072517;28;20864;-73
2022/08/16 01:31:23;;;;;;;31.52;28.20;;;20.80;99.90;;;;;;5090610;28;20042;-72
2022/08/16 01:33:49;;;;;;;26.55;24.13;;;20.80;99.90;;;;;;5092506;28;20132;-72
2022/08/16 01:36:15;;;;;;;27.83;25.20;;;20.70;99.90;;;;;;5084098;27;20121;-72
2022/08/16 01:38:44;;;;;;;30.65;27.45;;;20.70;99.90;;;;;;5092196;27;20048;-72
2022/08/16 01:41:17;;;;;;;31.23;27.90;;;20.70;99.90;;;;;;5082870;28;20051;-73
2022/08/16 01:43:45;;;;;;;32.17;25.42;;;20.70;99.90;;;;;;5083958;27;20051;-72
2022/08/16 01:46:23;;;;;;;;;;;20.70;99.90;;;;;;5086536;28;20035;-72
2022/08/16 01:49:12;;;;;;;25.38;22.70;;;20.70;99.90;;;;;;5091755;28;20519;-72
2022/08/16 01:51:40;;;;;;;23.92;21.67;;;20.70;99.90;;;;;;5083440;28;20051;-72
2022/08/16 01:54:06;;;;;;;22.83;20.63;;;20.70;99.90;;;;;;5084794;28;20055;-72
2022/08/16 01:56:32;;;;;;;24.00;21.25;;;20.70;99.90;;;;;;5110782;27;20031;-72
2022/08/16 01:59:04;;;;;;;23.30;20.90;;;20.80;99.90;;;;;;5086436;28;20062;-72
2022/08/16 02:01:31;;;;;;;31.33;26.65;;;20.80;99.90;;;;;;5087399;28;20078;-72
2022/08/16 02:03:57;;;;;;;25.67;23.15;;;20.60;99.90;;;;;;5088141;28;20055;-72
2022/08/16 02:06:24;;;;;;;24.88;22.25;;;20.60;99.90;;;;;;5087732;28;20059;-73
2022/08/16 02:08:50;;;;;;;26.40;23.95;;;20.60;99.90;;;;;;5077329;28;20048;-72
2022/08/16 02:11:16;;;;;;;24.77;22.42;;;20.60;99.90;;;;;;5088583;28;20130;-73
2022/08/16 02:13:42;;;;;;;25.50;22.98;;;20.60;99.90;;;;;;5086091;28;20055;-73
2022/08/16 02:16:10;;;;;;;24.73;21.77;;;20.70;99.90;;;;;;5088676;28;20397;-72
2022/08/16 02:18:37;;;;;;;;;;;20.70;99.90;;;;;;5086734;28;20048;-73
2022/08/16 02:21:04;;;;;;;23.90;21.52;;;20.60;99.90;;;;;;5085532;28;20550;-73
2022/08/16 02:23:32;;;;;;;22.48;20.33;;;20.60;99.90;;;;;;5087570;28;20059;-73
2022/08/16 02:25:58;;;;;;;24.67;22.25;;;20.50;99.90;;;;;;5087873;28;20036;-73
2022/08/16 02:28:24;;;;;;;24.00;21.70;;;20.50;99.90;;;;;;5087347;28;20067;-73
2022/08/16 02:30:50;;;;;;;25.10;22.55;;;20.60;99.90;;;;;;5085139;28;20044;-73
2022/08/16 02:33:16;;;;;;;22.85;20.40;;;20.60;99.90;;;;;;5087795;28;20056;-73
2022/08/16 02:35:41;;;;;;;22.80;20.70;;;20.50;99.90;;;;;;5087507;28;20127;-73
2022/08/16 02:38:07;;;;;;;22.48;18.92;;;20.50;99.90;;;;;;5088240;28;20059;-73
2022/08/16 02:40:33;;;;;;;25.13;21.48;;;20.50;99.90;;;;;;5088187;28;20048;-73
2022/08/16 02:42:59;;;;;;;22.80;20.55;;;20.50;99.90;;;;;;5085923;28;20044;-73
2022/08/16 02:45:26;;;;;;;23.67;21.48;;;20.40;99.90;;;;;;5078071;28;20056;-73
2022/08/16 02:47:52;;;;;;;23.53;21.27;;;20.40;99.90;;;;;;5085568;28;20072;-73
2022/08/16 02:50:19;;;;;;;23.52;21.08;;;20.30;99.90;;;;;;5086756;28;20833;-74
2022/08/16 02:52:44;;;;;;;24.30;21.77;;;20.30;99.90;;;;;;5086746;28;20048;-74
2022/08/16 02:55:11;;;;;;;25.33;22.50;;;20.30;99.90;;;;;;5086658;28;20509;-74
2022/08/16 02:57:36;;;;;;;23.05;20.63;;;20.20;99.90;;;;;;5084958;28;20048;-74
2022/08/16 03:00:08;;;;;;;22.13;19.88;;;20.20;99.90;;;;;;5086776;28;20058;-75
2022/08/16 03:02:34;;;;;;;23.35;21.02;;;20.20;99.90;;;;;;5086775;28;20051;-74
2022/08/16 03:05:00;;;;;;;23.00;20.48;;;20.20;99.90;;;;;;5087410;28;20063;-74
2022/08/16 03:07:26;;;;;;;25.08;22.60;;;20.10;99.90;;;;;;5086526;28;20055;-74
2022/08/16 03:09:52;;;;;;;28.48;23.50;;;20.10;99.90;;;;;;5088120;28;20044;-74
2022/08/16 03:12:18;;;;;;;23.25;21.15;;;20.00;99.90;;;;;;5087090;28;20115;-74
2022/08/16 03:14:45;;;;;;;26.08;23.15;;;20.00;99.90;;;;;;5079984;28;20052;-73
2022/08/16 03:17:12;;;;;;;23.67;21.35;;;19.90;99.90;;;;;;5080883;28;20039;-74
2022/08/16 03:19:38;;;;;;;26.08;23.30;;;19.90;99.90;;;;;;5086517;28;20066;-74
2022/08/16 03:22:04;;;;;;;26.13;22.30;;;19.80;99.90;;;;;;5080996;28;20047;-74
2022/08/16 03:24:29;;;;;;;25.95;23.05;;;19.80;99.90;;;;;;5079426;28;20055;-74
2022/08/16 03:27:00;;;;;;;25.08;21.92;;;19.80;99.90;;;;;;5087583;28;20052;-74
2022/08/16 03:29:28;;;;;;;25.40;22.65;;;19.80;99.90;;;;;;5087232;28;20446;-74
2022/08/16 03:31:53;;;;;;;26.75;22.80;;;19.70;99.90;;;;;;5088125;28;20522;-74
2022/08/16 03:34:19;;;;;;;23.77;21.42;;;19.70;99.90;;;;;;5087311;28;20046;-74
2022/08/16 03:36:45;;;;;;;22.50;20.48;;;19.70;99.90;;;;;;5088209;28;20134;-74
2022/08/16 03:39:11;;;;;;;24.52;21.92;;;19.70;99.90;;;;;;5082136;28;20055;-74
2022/08/16 03:41:39;;;;;;;26.42;21.70;;;19.70;99.90;;;;;;5086425;28;20507;-75
2022/08/16 03:44:06;;;;;;;23.40;20.98;;;19.60;99.90;;;;;;5086781;28;20385;-74
2022/08/16 03:46:33;;;;;;;25.58;22.75;;;19.60;99.90;;;;;;5086959;28;20059;-74
2022/08/16 03:48:58;;;;;;;22.93;20.70;;;19.60;99.90;;;;;;5084663;28;20060;-74
2022/08/16 03:51:24;;;;;;;23.50;20.75;;;19.60;99.90;;;;;;5077024;28;20289;-74
2022/08/16 03:53:50;;;;;;;29.05;21.98;;;19.50;99.90;;;;;;5081196;28;20051;-75
2022/08/16 03:56:16;;;;;;;28.80;22.02;;;19.50;99.90;;;;;;5076788;28;20044;-74
2022/08/16 03:58:42;;;;;;;24.40;22.00;;;19.50;99.90;;;;;;5086917;28;20127;-74
2022/08/16 04:01:09;;;;;;;24.30;21.85;;;19.50;99.90;;;;;;5091045;28;20111;-74
2022/08/16 04:03:35;;;;;;;33.10;28.53;;;19.40;99.90;;;;;;5089089;28;20540;-74
2022/08/16 04:06:01;;;;;;;34.25;30.60;;;19.20;99.90;;;;;;5089858;28;20073;-74
2022/08/16 04:08:27;;;;;;;36.70;28.25;;;19.10;99.90;;;;;;5092135;28;20039;-74
2022/08/16 04:10:54;;;;;;;32.42;29.17;;;19.00;99.90;;;;;;5089714;28;20083;-73
2022/08/16 04:13:20;;;;;;;32.10;28.77;;;18.90;99.90;;;;;;5083904;28;20401;-73
2022/08/16 04:15:46;;;;;;;31.80;28.48;;;18.90;99.90;;;;;;5072621;28;20048;-73
2022/08/16 04:18:12;;;;;;;36.20;31.33;;;18.80;99.90;;;;;;5070661;28;20052;-73
2022/08/16 04:20:38;;;;;;;36.70;31.65;;;18.80;99.90;;;;;;5061698;28;20045;-74
2022/08/16 04:23:06;;;;;;;36.80;31.42;;;18.70;99.90;;;;;;5078757;28;20098;-74
2022/08/16 04:25:33;;;;;;;;;;;18.70;99.90;;;;;;5076281;28;20563;-74
2022/08/16 04:27:59;;;;;;;34.40;30.15;;;18.60;99.90;;;;;;5086358;28;20300;-74
2022/08/16 04:30:26;;;;;;;33.42;29.92;;;18.60;99.90;;;;;;5086190;28;20393;-73
2022/08/16 04:32:52;;;;;;;33.25;28.48;;;18.60;99.90;;;;;;5087389;28;20101;-75
2022/08/16 04:35:20;;;;;;;35.55;28.55;;;18.60;99.90;;;;;;5088622;28;20040;-74
2022/08/16 04:37:47;;;;;;;32.78;26.33;;;18.60;99.90;;;;;;5087916;28;20506;-74
2022/08/16 04:40:13;;;;;;;32.97;27.40;;;18.60;99.90;;;;;;5082160;28;20174;-75
2022/08/16 04:42:41;;;;;;;30.85;27.38;;;18.60;99.90;;;;;;5089654;28;20078;-75
2022/08/16 04:45:12;;;;;;;30.42;27.17;;;18.60;99.90;;;;;;5082977;28;20109;-74
2022/08/16 04:47:39;;;;;;;29.58;26.55;;;18.60;99.90;;;;;;5086736;28;20045;-74
2022/08/16 04:50:12;;;;;;;30.58;27.45;;;18.60;99.90;;;;;;5080140;28;20100;-73
2022/08/16 04:52:38;;;;;;;31.63;28.27;;;18.70;99.90;;;;;;5082620;28;20404;-74
2022/08/16 04:55:07;;;;;;;28.25;25.55;;;18.70;99.90;;;;;;5087374;28;20131;-73
2022/08/16 04:57:33;;;;;;;32.33;26.90;;;18.70;99.90;;;;;;5084312;28;20044;-74
2022/08/16 04:59:59;;;;;;;27.05;24.20;;;18.70;99.90;;;;;;5108714;28;20153;-74
2022/08/16 05:02:24;;;;;;;27.92;24.00;;;18.70;99.90;;;;;;5111085;28;20051;-74
2022/08/16 05:04:50;;;;;;;30.67;26.42;;;18.70;99.90;;;;;;5110386;28;20047;-74
2022/08/16 05:07:16;;;;;;;29.55;26.27;;;18.70;99.90;;;;;;5111159;28;20051;-73
2022/08/16 05:09:44;;;;;;;33.20;28.23;;;18.70;99.90;;;;;;5092391;28;20104;-74
2022/08/16 05:12:11;;;;;;;30.30;27.17;;;18.70;99.90;;;;;;5093005;28;20652;-74
2022/08/16 05:14:37;;;;;;;32.63;27.92;;;18.80;99.90;;;;;;5092745;28;20566;-74
2022/08/16 05:17:02;;;;;;;30.17;26.98;;;18.80;99.90;;;;;;5092308;28;20039;-74
2022/08/16 05:19:28;;;;;;;30.15;26.90;;;18.90;99.90;;;;;;5093280;28;20054;-74
2022/08/16 05:21:54;;;;;;;32.95;29.17;;;19.00;99.90;;;;;;5091577;28;20131;-74
2022/08/16 05:24:20;;;;;;;35.47;29.90;;;19.10;99.90;;;;;;5079031;28;20063;-75
2022/08/16 05:26:45;;;;;;;33.22;29.70;;;19.20;99.90;;;;;;5108200;28;20043;-75
2022/08/16 05:29:11;;;;;;;36.00;29.15;;;19.20;99.90;;;;;;5092866;28;20065;-76
2022/08/16 05:31:37;;;;;;;32.45;28.60;;;19.30;99.90;;;;;;5074225;28;20057;-75
2022/08/16 05:34:03;;;;;;;39.10;33.58;;;19.40;99.90;;;;;;5091472;28;20038;-74
2022/08/16 05:36:29;;;;;;;37.13;33.25;;;19.50;99.90;;;;;;5083787;28;20078;-76
2022/08/16 05:38:55;;;;;;;39.85;35.50;;;19.50;99.90;;;;;;5084757;28;20092;-76
2022/08/16 05:41:20;;;;;;;45.85;34.45;;;19.60;99.90;;;;;;5108031;28;20043;-76
2022/08/16 05:43:46;;;;;;;45.00;35.80;;;19.70;99.90;;;;;;5107618;28;20051;-76
2022/08/16 05:46:16;;;;;;;38.45;33.33;;;19.90;99.90;;;;;;5094554;28;20092;-76
2022/08/16 05:48:43;;;;;;;35.97;32.17;;;19.80;99.90;;;;;;5089719;28;20093;-77
2022/08/16 05:51:09;;;;;;;39.05;34.80;;;19.90;99.90;;;;;;5089928;28;20063;-77
2022/08/16 05:53:34;;;;;;;48.53;31.33;;;20.00;99.90;;;;;;5091782;28;20043;-76
2022/08/16 05:56:00;;;;;;;37.47;32.78;;;20.00;99.90;;;;;;5090318;28;20506;-75
2022/08/16 05:58:26;;;;;;;32.95;29.27;;;20.00;99.90;;;;;;5091589;28;20059;-76
2022/08/16 06:00:51;;;;;;;34.22;30.48;;;20.10;99.90;;;;;;5109502;28;20047;-74
2022/08/16 06:03:17;;;;;;;37.13;30.83;;;20.20;99.90;;;;;;5107283;28;20049;-75
2022/08/16 06:05:42;;;;;;;33.53;28.88;;;20.20;99.90;;;;;;5103185;28;20050;-76
2022/08/16 06:08:08;;;;;;;36.75;28.45;;;20.20;99.90;;;;;;5089752;28;20752;-75
2022/08/16 06:10:34;;;;;;;32.63;27.42;;;20.30;99.90;;;;;;5078984;28;20059;-75
2022/08/16 06:12:59;;;;;;;32.40;26.92;;;20.40;99.90;;;;;;5092141;28;20052;-75
2022/08/16 06:15:25;;;;;;;35.63;28.88;;;20.40;99.90;;;;;;5074247;28;20504;-76
2022/08/16 06:17:51;;;;;;;40.92;27.00;;;20.40;99.90;;;;;;5086092;28;20837;-76
2022/08/16 06:20:20;;;;;;;33.20;27.08;;;20.50;99.90;;;;;;5087228;28;20408;-75
2022/08/16 06:22:46;;;;;;;29.02;24.90;;;20.60;99.90;;;;;;5085499;28;20051;-76
2022/08/16 06:25:13;;;;;;;34.70;28.42;;;20.60;99.90;;;;;;5086125;28;20043;-74
2022/08/16 06:27:41;;;;;;;31.55;27.42;;;20.70;99.90;;;;;;5106992;28;20131;-74
2022/08/16 06:30:07;;;;;;;;;;;20.80;99.90;;;;;;5091520;28;20051;-73
2022/08/16 06:32:33;;;;;;;36.27;29.67;;;20.90;99.90;;;;;;5082109;28;20392;-75
2022/08/16 06:34:59;;;;;;;32.70;29.10;;;21.10;99.90;;;;;;5090110;28;20294;-74
2022/08/16 06:37:25;;;;;;;37.05;26.38;;;21.20;99.90;;;;;;5108824;28;20059;-74
2022/08/16 06:39:50;;;;;;;30.77;26.65;;;21.30;99.90;;;;;;5084522;28;20040;-74
2022/08/16 06:42:17;;;;;;;40.35;28.73;;;21.40;99.90;;;;;;5085452;28;20102;-73
2022/08/16 06:44:43;;;;;;;34.33;26.17;;;21.50;99.90;;;;;;5080687;28;20100;-76
2022/08/16 06:47:08;;;;;;;31.55;26.73;;;21.60;99.90;;;;;;5109495;28;20043;-73
2022/08/16 06:49:34;;;;;;;28.38;24.33;;;21.70;99.90;;;;;;5085484;28;20252;-73
2022/08/16 06:52:00;;;;;;;29.95;26.58;;;21.70;99.90;;;;;;5090957;28;20050;-73
2022/08/16 06:54:26;;;;;;;35.17;23.23;;;21.80;99.90;;;;;;5107705;28;20052;-76
2022/08/16 06:56:51;;;;;;;27.23;22.92;;;22.00;99.90;;;;;;5088978;28;20044;-74
2022/08/16 06:59:17;;;;;;;29.02;24.15;;;22.20;99.90;;;;;;5088949;28;20090;-74
2022/08/16 07:01:43;;;;;;;31.73;23.55;;;22.40;99.90;;;;;;5090250;28;20087;-76
2022/08/16 07:04:08;;;;;;;41.25;23.27;;;22.60;99.90;;;;;;5088891;28;20843;-73
2022/08/16 07:06:34;;;;;;;25.65;22.98;;;22.90;99.90;;;;;;5088433;28;20059;-72
2022/08/16 07:09:00;;;;;;;25.05;20.63;;;23.10;99.90;;;;;;5086665;28;20043;-73
2022/08/16 07:11:25;;;;;;;23.75;20.08;;;23.30;99.90;;;;;;5078669;28;20454;-74
2022/08/16 07:13:52;;;;;;;23.90;18.80;;;23.60;99.90;;;;;;5072125;28;20054;-75
2022/08/16 07:16:19;;;;;;;28.23;21.80;;;23.90;99.90;;;;;;5083196;28;20071;-75
2022/08/16 07:18:46;;;;;;;23.90;21.40;;;24.10;99.90;;;;;;5088370;28;20051;-73
2022/08/16 07:21:12;;;;;;;22.10;19.90;;;24.40;99.90;;;;;;5089983;28;20852;-73
2022/08/16 07:23:39;;;;;;;23.45;20.85;;;24.50;99.90;;;;;;5088781;28;20532;-77
2022/08/16 07:26:09;;;;;;;24.45;21.88;;;24.80;99.90;;;;;;5102265;28;20043;-77
2022/08/16 07:28:34;;;;;;;21.58;19.48;;;24.80;99.90;;;;;;5090172;28;20067;-77
2022/08/16 07:31:01;;;;;;;23.40;20.35;;;24.90;99.90;;;;;;5089134;28;20460;-77
2022/08/16 07:33:29;;;;;;;26.08;19.65;;;25.10;99.90;;;;;;5085955;28;20082;-77
2022/08/16 07:35:56;;;;;;;;;;;25.30;99.90;;;;;;5090046;28;20146;-77
2022/08/16 07:38:25;;;;;;;25.02;21.92;;;25.40;99.90;;;;;;5090414;28;19920;-76
2022/08/16 07:40:50;;;;;;;28.23;20.55;;;25.60;99.90;;;;;;5086814;28;20510;-78
2022/08/16 07:43:16;;;;;;;24.65;21.90;;;25.60;99.90;;;;;;5085820;28;20063;-77
2022/08/16 07:45:42;;;;;;;24.73;21.38;;;25.70;99.90;;;;;;5087824;28;20053;-81
2022/08/16 07:48:07;;;;;;;22.15;19.95;;;25.90;99.90;;;;;;5088689;28;20451;-77
2022/08/16 07:50:33;;;;;;;25.80;22.58;;;26.00;99.90;;;;;;5086289;28;20480;-77
2022/08/16 07:52:58;;;;;;;26.63;22.23;;;26.20;99.90;;;;;;5086925;28;20176;-78
2022/08/16 07:55:24;;;;;;;38.00;23.13;;;26.30;99.90;;;;;;5090205;28;20044;-77
2022/08/16 07:57:50;;;;;;;38.53;23.55;;;26.50;99.90;;;;;;5088908;28;20050;-77
2022/08/16 08:00:16;;;;;;;27.00;23.52;;;26.50;99.90;;;;;;5087772;28;20056;-77
2022/08/16 08:02:42;;;;;;;32.33;23.60;;;26.50;99.90;;;;;;5089775;28;20052;-78
2022/08/16 08:05:08;;;;;;;26.10;22.52;;;26.60;99.50;;;;;;5089288;28;20479;-77
2022/08/16 08:07:33;;;;;;;23.35;20.98;;;26.70;99.00;;;;;;5108184;28;20048;-77
2022/08/16 08:09:59;;;;;;;33.53;24.38;;;26.70;98.30;;;;;;5107456;28;20048;-77
2022/08/16 08:12:25;;;;;;;24.83;22.30;;;26.90;96.80;;;;;;5090231;28;20067;-77
2022/08/16 08:14:52;;;;;;;24.35;21.10;;;26.90;96.50;;;;;;5078575;28;20465;-77
2022/08/16 08:17:17;;;;;;;24.90;22.30;;;27.00;95.90;;;;;;5088957;28;20047;-78
2022/08/16 08:19:47;;;;;;;20.55;18.50;;;27.20;94.90;;;;;;5076290;28;20166;-77
2022/08/16 08:22:13;;;;;;;28.65;18.63;;;27.50;94.30;;;;;;5089830;28;20097;-78
2022/08/16 08:24:38;;;;;;;18.48;16.50;;;27.60;93.30;;;;;;5087896;28;20036;-77
2022/08/16 08:27:07;;;;;;;18.88;17.00;;;27.60;92.20;;;;;;5096286;28;20058;-78
2022/08/16 08:29:35;;;;;;;21.88;18.83;;;27.80;91.40;;;;;;5090096;28;20070;-78
2022/08/16 08:32:01;;;;;;;18.35;16.42;;;28.10;90.40;;;;;;5107480;28;20115;-78
2022/08/16 08:34:27;;;;;;;21.38;18.23;;;28.00;88.40;;;;;;5089221;28;20157;-78
2022/08/16 08:36:53;;;;;;;22.30;19.92;;;28.10;87.60;;;;;;5089292;28;20122;-77
2022/08/16 08:39:19;;;;;;;23.35;20.42;;;28.10;85.90;;;;;;5088860;28;20487;-77
2022/08/16 08:41:46;;;;;;;21.40;18.75;;;28.30;85.10;;;;;;5089568;28;20080;-77
2022/08/16 08:44:12;;;;;;;20.75;17.98;;;28.30;84.10;;;;;;5088280;28;20050;-78
2022/08/16 08:46:38;;;;;;;21.55;18.83;;;28.30;82.90;;;;;;5098189;28;20063;-77
2022/08/16 08:49:07;;;;;;;31.52;20.10;;;28.50;82.90;;;;;;5083560;28;20059;-77
2022/08/16 08:51:34;;;;;;;49.92;23.08;;;28.40;82.60;;;;;;5084074;28;20039;-77
2022/08/16 08:54:00;;;;;;;25.55;18.75;;;28.50;80.80;;;;;;5094604;28;20104;-77
2022/08/16 08:56:28;;;;;;;20.55;17.98;;;28.60;79.60;;;;;;5086359;28;20063;-78
2022/08/16 08:58:54;;;;;;;27.10;17.80;;;28.80;78.50;;;;;;5085298;28;20071;-76
2022/08/16 09:01:25;;;;;;;21.65;19.60;;;28.90;78.10;;;;;;5086630;28;20052;-76
2022/08/16 09:03:51;;;;;;;20.05;17.98;;;28.80;76.60;;;;;;5077393;28;20819;-75
2022/08/16 09:06:17;;;;;;;19.55;17.55;;;28.90;76.90;;;;;;5080296;28;20052;-73
2022/08/16 09:08:43;;;;;;;20.23;18.23;;;29.10;76.10;;;;;;5086678;28;20414;-73
2022/08/16 09:11:08;;;;;;;21.92;19.65;;;29.30;74.90;;;;;;5087204;28;20043;-74
2022/08/16 09:13:34;;;;;;;25.55;20.95;;;29.40;73.70;;;;;;5082519;28;20036;-72
2022/08/16 09:16:00;;;;;;;26.15;20.92;;;29.50;72.40;;;;;;5085763;28;20105;-73
2022/08/16 09:18:28;;;;;;;19.13;17.33;;;29.60;71.30;;;;;;5085517;28;20507;-72
2022/08/16 09:20:55;;;;;;;18.25;16.30;;;29.70;70.50;;;;;;5091189;28;20112;-75
2022/08/16 09:23:21;;;;;;;25.83;16.63;;;29.80;70.30;;;;;;5086090;28;20047;-75
2022/08/16 09:25:48;;;;;;;17.92;15.32;;;29.90;69.90;;;;;;5078444;28;20040;-74
2022/08/16 09:28:14;;;;;;;18.95;16.85;;;30.00;68.60;;;;;;5087594;28;20036;-77
2022/08/16 09:30:41;;;;;;;22.02;16.50;;;30.10;68.20;;;;;;5065689;28;20056;-74
2022/08/16 09:33:07;;;;;;;18.92;16.90;;;30.10;67.30;;;;;;5081725;28;20497;-74
2022/08/16 09:35:34;;;;;;;29.83;16.30;;;30.10;67.00;;;;;;5085762;28;20491;-75
2022/08/16 09:38:00;;;;;;;23.63;15.75;;;30.00;66.10;;;;;;5088378;28;20059;-75
2022/08/16 09:40:25;;;;;;;15.52;13.75;;;30.10;64.90;;;;;;5078959;28;20040;-74
2022/08/16 09:42:56;;;;;;;15.70;14.20;;;30.10;63.90;;;;;;5070220;28;20048;-77
2022/08/16 09:45:22;;;;;;;18.30;15.52;;;30.20;64.20;;;;;;5088425;28;20107;-75
2022/08/16 09:47:53;;;;;;;17.88;16.02;;;30.10;64.00;;;;;;5094714;28;20143;-74
2022/08/16 09:50:18;;;;;;;16.27;14.57;;;30.10;63.30;;;;;;5088698;28;20048;-74
2022/08/16 09:52:44;;;;;;;20.52;15.30;;;30.10;63.80;;;;;;5087116;28;20047;-75
2022/08/16 09:55:11;;;;;;;15.88;13.43;;;30.40;63.50;;;;;;5086769;28;20141;-75
2022/08/16 09:57:39;;;;;;;18.23;15.00;;;30.50;63.70;;;;;;5088274;28;20497;-75
2022/08/16 10:00:06;;;;;;;17.77;15.15;;;30.70;63.20;;;;;;5087565;28;20051;-76
2022/08/16 10:02:32;;;;;;;;;;;30.70;61.80;;;;;;5083666;28;20048;-75
2022/08/16 10:04:58;;;;;;;15.70;14.20;;;30.70;58.30;;;;;;5082354;28;20277;-75
2022/08/16 10:07:30;;;;;;;14.75;13.35;;;30.60;61.60;;;;;;5087606;28;20044;-76
2022/08/16 10:09:55;;;;;;;16.90;15.25;;;30.70;61.30;;;;;;5100450;28;20113;-74
2022/08/16 10:15:09;;;;;;;13.63;12.18;;;30.70;60.00;;;;;;5089569;28;20056;-74
2022/08/16 10:17:37;;;;;;;47.70;17.45;;;30.90;60.10;;;;;;5088493;28;20131;-77
2022/08/16 10:20:04;;;;;;;17.08;14.52;;;31.10;59.10;;;;;;5093375;28;20051;-76
2022/08/16 10:22:30;;;;;;;14.57;12.52;;;31.00;58.70;;;;;;5093882;28;20044;-76
2022/08/16 10:24:56;;;;;;;14.77;13.38;;;31.10;58.80;;;;;;5089306;28;20047;-74
2022/08/16 10:27:21;;;;;;;15.93;12.27;;;31.10;58.00;;;;;;5084646;28;20098;-75
2022/08/16 10:29:47;;;;;;;13.98;12.50;;;31.20;57.90;;;;;;5090240;28;20040;-76
2022/08/16 10:32:13;;;;;;;18.15;16.42;;;31.30;57.80;;;;;;5085535;28;20049;-75
2022/08/16 10:34:38;;;;;;;14.88;13.65;;;31.30;57.30;;;;;;5095190;28;20131;-75
2022/08/16 10:37:04;;;;;;;18.63;15.27;;;31.30;58.20;;;;;;5098417;28;20416;-77
2022/08/16 10:39:30;;;;;;;19.40;17.02;;;31.50;58.00;;;;;;5080781;28;20051;-75
2022/08/16 10:41:56;;;;;;;15.30;13.67;;;31.50;57.30;;;;;;5089222;28;20075;-76
2022/08/16 10:44:21;;;;;;;13.57;12.02;;;31.50;57.00;;;;;;5067065;28;20338;-74
2022/08/16 10:46:48;;;;;;;20.77;15.65;;;31.60;56.10;;;;;;5088778;28;20472;-75
2022/08/16 10:49:13;;;;;;;15.07;13.63;;;31.70;55.80;;;;;;5084054;28;20399;-76
2022/08/16 10:51:39;;;;;;;14.20;12.88;;;31.60;55.10;;;;;;5087881;28;20055;-74
2022/08/16 10:54:05;;;;;;;16.67;13.65;;;31.70;55.00;;;;;;5087025;28;20043;-74
2022/08/16 10:56:32;;;;;;;15.55;12.65;;;32.00;55.50;;;;;;5078921;28;20050;-75
2022/08/16 10:58:58;;;;;;;15.10;13.05;;;31.90;54.90;;;;;;5087451;28;20512;-75
2022/08/16 11:01:27;;;;;;;13.90;12.60;;;31.90;54.20;;;;;;5084239;28;20567;-75
2022/08/16 11:03:53;;;;;;;12.70;11.55;;;32.10;54.30;;;;;;5082405;28;20282;-75
2022/08/16 11:06:19;;;;;;;15.35;13.35;;;32.30;53.90;;;;;;5087266;28;20043;-75
2022/08/16 11:08:45;;;;;;;14.82;13.45;;;32.50;53.30;;;;;;5087599;28;20052;-74
2022/08/16 11:11:12;;;;;;;21.35;14.38;;;32.20;53.00;;;;;;5088766;28;20048;-75
2022/08/16 11:13:37;;;;;;;17.25;13.10;;;32.30;53.30;;;;;;5086970;28;20052;-75
2022/08/16 11:16:04;;;;;;;14.70;13.20;;;32.20;53.20;;;;;;5087524;28;20028;-75
2022/08/16 11:18:29;;;;;;;13.70;12.33;;;32.30;53.00;;;;;;5086471;28;20097;-76
2022/08/16 11:20:57;;;;;;;21.58;14.48;;;32.30;52.70;;;;;;5086405;28;20044;-75
2022/08/16 11:23:24;;;;;;;13.85;12.48;;;32.20;52.30;;;;;;5086631;28;20075;-74
2022/08/16 11:25:50;;;;;;;13.27;12.00;;;32.10;52.70;;;;;;5078465;28;20054;-75
2022/08/16 11:28:16;;;;;;;15.15;13.63;;;32.30;52.90;;;;;;5084815;28;20521;-76
2022/08/16 11:30:42;;;;;;;15.23;12.93;;;32.50;52.20;;;;;;5087195;28;20086;-74
2022/08/16 11:33:08;;;;;;;14.13;12.73;;;32.40;51.80;;;;;;5081826;28;20036;-75
2022/08/16 11:35:35;;;;;;;14.85;13.25;;;32.60;51.60;;;;;;5087664;28;20074;-75
2022/08/16 11:38:10;;;;;;;12.63;11.52;;;32.50;50.40;;;;;;5079507;28;20091;-74
2022/08/16 11:40:41;;;;;;;14.60;13.38;;;32.50;51.40;;;;;;5085340;28;20062;-75
2022/08/16 11:43:07;;;;;;;13.75;12.52;;;32.50;51.80;;;;;;5094261;28;20047;-74
2022/08/16 11:45:34;;;;;;;15.23;13.67;;;32.40;51.70;;;;;;5093416;28;20044;-73
2022/08/16 11:48:01;;;;;;;13.75;12.52;;;32.50;52.20;;;;;;5095933;28;20066;-75
2022/08/16 11:50:32;;;;;;;15.23;13.82;;;32.60;51.50;;;;;;5097552;28;20127;-73
2022/08/16 11:52:59;;;;;;;13.85;12.55;;;32.50;51.00;;;;;;5095229;28;20413;-75
2022/08/16 11:55:25;;;;;;;;;;;32.60;51.20;;;;;;5087241;28;20047;-74
2022/08/16 11:57:51;;;;;;;15.00;13.68;;;32.70;50.80;;;;;;5083967;28;20659;-75
2022/08/16 12:00:16;;;;;;;14.13;12.80;;;32.60;50.20;;;;;;5089687;28;20109;-76
2022/08/16 12:02:43;;;;;;;13.02;11.65;;;32.60;50.00;;;;;;5089801;28;20138;-75
2022/08/16 12:05:12;;;;;;;13.23;11.85;;;32.50;50.10;;;;;;5108164;28;20122;-75
2022/08/16 12:07:39;;;;;;;12.70;11.57;;;32.60;50.20;;;;;;5089758;28;20456;-75
2022/08/16 12:10:08;;;;;;;14.68;13.23;;;32.50;49.70;;;;;;5107104;28;20480;-76
2022/08/16 12:12:34;;;;;;;16.73;11.50;;;32.50;49.10;;;;;;5107266;28;20044;-76
2022/08/16 12:15:00;;;;;;;14.55;12.15;;;32.50;49.20;;;;;;5089165;28;20704;-75
2022/08/16 12:17:30;;;;;;;11.95;11.07;;;32.50;49.40;;;;;;5087354;28;20040;-74
2022/08/16 12:19:56;;;;;;;14.18;12.48;;;32.60;48.80;;;;;;5083466;28;20043;-75
2022/08/16 12:22:23;;;;;;;12.43;11.48;;;32.60;47.90;;;;;;5103288;28;20205;-75
2022/08/16 12:24:49;;;;;;;11.98;10.52;;;32.70;47.50;;;;;;5064478;28;20109;-76
2022/08/16 12:27:15;;;;;;;13.90;12.53;;;32.60;48.00;;;;;;5093204;28;20521;-74
2022/08/16 12:29:41;;;;;;;11.88;10.85;;;32.70;47.80;;;;;;5107154;28;20323;-73